createdAt,value
2018-05-06T00:02:04.398Z,3.80
2018-05-06T00:04:31.979Z,3.90
2018-05-06T00:06:59.524Z,4.00
2018-05-06T00:09:27.100Z,3.90
2018-05-06T00:11:54.731Z,3.80
2018-05-06T00:14:22.361Z,3.83
2018-05-06T00:16:49.950Z,3.83
2018-05-06T00:19:17.524Z,4.00
2018-05-06T00:21:45.228Z,3.90
2018-05-06T00:24:13.673Z,3.93
2018-05-06T00:26:41.230Z,3.63
2018-05-06T00:29:09.005Z,4.17
2018-05-06T00:31:36.668Z,4.20
2018-05-06T00:34:04.270Z,4.30
2018-05-06T00:36:32.039Z,4.27
2018-05-06T00:38:59.579Z,4.40
2018-05-06T00:41:27.160Z,4.50
2018-05-06T00:43:54.711Z,4.97
2018-05-06T00:46:22.376Z,5.10
2018-05-06T00:48:50.675Z,5.07
2018-05-06T00:51:18.263Z,5.10
2018-05-06T00:53:45.920Z,5.07
2018-05-06T00:56:13.584Z,5.20
2018-05-06T00:58:41.126Z,5.37
2018-05-06T01:01:08.794Z,4.70
2018-05-06T01:03:36.335Z,4.77
2018-05-06T01:06:03.967Z,5.07
2018-05-06T01:08:32.279Z,4.90
2018-05-06T01:10:59.838Z,5.67
2018-05-06T01:13:27.382Z,5.47
2018-05-06T01:15:54.996Z,5.63
2018-05-06T01:18:22.552Z,6.27
2018-05-06T01:20:50.128Z,5.23
2018-05-06T01:23:17.807Z,5.53
2018-05-06T01:25:46.135Z,5.63
2018-05-06T01:28:13.692Z,5.40
2018-05-06T01:30:41.373Z,5.50
2018-05-06T01:33:08.935Z,5.37
2018-05-06T01:35:38.003Z,5.43
2018-05-06T01:38:05.736Z,5.60
2018-05-06T01:40:33.275Z,5.30
2018-05-06T01:43:01.587Z,5.60
2018-05-06T01:45:29.127Z,5.70
2018-05-06T01:47:56.691Z,5.80
2018-05-06T01:50:24.243Z,5.10
2018-05-06T01:52:51.811Z,5.30
2018-05-06T01:55:19.375Z,5.87
2018-05-06T01:57:46.975Z,5.07
2018-05-06T02:00:14.524Z,5.80
2018-05-06T02:02:42.093Z,5.43
2018-05-06T02:05:09.701Z,5.63
2018-05-06T02:07:37.244Z,4.90
2018-05-06T02:10:05.568Z,5.57
2018-05-06T02:12:33.132Z,5.70
2018-05-06T02:15:00.804Z,5.90
2018-05-06T02:17:28.383Z,6.10
2018-05-06T02:19:55.920Z,5.80
2018-05-06T02:22:23.467Z,6.10
2018-05-06T02:24:51.108Z,5.70
2018-05-06T02:27:18.686Z,6.50
2018-05-06T02:29:46.228Z,6.17
2018-05-06T02:32:13.867Z,7.10
2018-05-06T02:34:41.381Z,6.10
2018-05-06T02:37:08.958Z,6.70
2018-05-06T02:39:36.512Z,6.63
2018-05-06T02:42:04.092Z,6.10
2018-05-06T02:44:31.663Z,5.87
2018-05-06T02:47:00.053Z,5.57
2018-05-06T02:49:28.383Z,6.07
2018-05-06T02:51:55.959Z,6.20
2018-05-06T02:54:23.532Z,5.80
2018-05-06T02:56:51.111Z,5.87
2018-05-06T02:59:19.427Z,6.40
2018-05-06T03:01:47.001Z,5.43
2018-05-06T03:04:14.544Z,5.40
2018-05-06T03:06:42.131Z,5.70
2018-05-06T03:09:09.698Z,7.00
2018-05-06T03:11:37.244Z,6.00
2018-05-06T03:14:04.931Z,5.30
2018-05-06T03:16:32.464Z,5.63
2018-05-06T03:19:00.031Z,5.00
2018-05-06T03:21:27.590Z,5.47
2018-05-06T03:23:55.152Z,5.50
2018-05-06T03:26:22.699Z,4.93
2018-05-06T03:28:50.275Z,5.60
2018-05-06T03:31:17.909Z,5.00
2018-05-06T03:33:45.478Z,5.47
2018-05-06T03:36:13.027Z,5.17
2018-05-06T03:38:40.593Z,5.83
2018-05-06T03:41:08.141Z,5.40
2018-05-06T03:43:35.677Z,5.40
2018-05-06T03:46:04.003Z,5.47
2018-05-06T03:48:31.563Z,5.50
2018-05-06T03:51:00.571Z,5.13
2018-05-06T03:53:28.899Z,4.93
2018-05-06T03:59:21.056Z,5.40
2018-05-06T04:01:50.064Z,5.30
2018-05-06T04:04:19.325Z,5.50
2018-05-06T04:06:46.860Z,5.20
2018-05-06T04:09:14.449Z,5.40
2018-05-06T04:11:42.760Z,5.20
2018-05-06T04:14:10.324Z,5.40
2018-05-06T04:16:37.872Z,5.10
2018-05-06T04:19:05.438Z,5.27
2018-05-06T04:21:33.019Z,5.70
2018-05-06T04:24:00.565Z,5.20
2018-05-06T04:26:28.131Z,5.40
2018-05-06T04:28:55.676Z,5.40
2018-05-06T04:31:23.236Z,5.53
2018-05-06T04:33:50.766Z,5.47
2018-05-06T04:36:19.248Z,5.17
2018-05-06T04:38:47.568Z,5.77
2018-05-06T04:41:15.188Z,5.43
2018-05-06T04:43:43.525Z,5.00
2018-05-06T04:46:11.088Z,5.20
2018-05-06T04:48:38.657Z,5.40
2018-05-06T04:51:06.976Z,5.30
2018-05-06T04:53:34.521Z,5.13
2018-05-06T04:56:02.851Z,4.90
2018-05-06T04:58:30.432Z,5.10
2018-05-06T05:00:59.487Z,5.37
2018-05-06T05:03:27.041Z,5.60
2018-05-06T05:05:54.629Z,5.47
2018-05-06T05:08:22.180Z,5.40
2018-05-06T05:10:49.748Z,5.00
2018-05-06T05:13:17.295Z,5.13
2018-05-06T05:15:44.860Z,5.27
2018-05-06T05:18:12.437Z,5.40
2018-05-06T05:20:39.976Z,5.30
2018-05-06T05:23:07.552Z,5.27
2018-05-06T05:25:35.100Z,4.90
2018-05-06T05:28:02.800Z,6.77
2018-05-06T05:30:30.424Z,5.20
2018-05-06T05:32:57.997Z,4.70
2018-05-06T05:35:25.555Z,4.37
2018-05-06T05:37:53.101Z,5.10
2018-05-06T05:40:20.672Z,20.70
2018-05-06T05:42:48.236Z,7.97
2018-05-06T05:47:49.671Z,5.30
2018-05-06T05:50:17.340Z,3.93
2018-05-06T05:52:44.900Z,3.33
2018-05-06T05:55:12.512Z,3.20
2018-05-06T05:57:40.137Z,3.10
2018-05-06T06:00:07.864Z,3.00
2018-05-06T06:02:36.196Z,2.80
2018-05-06T06:05:03.760Z,3.10
2018-05-06T06:07:31.324Z,3.37
2018-05-06T06:09:58.887Z,2.80
2018-05-06T06:12:26.443Z,5.18
2018-05-06T06:14:53.986Z,7.22
2018-05-06T06:17:21.545Z,3.40
2018-05-06T06:19:49.160Z,2.35
2018-05-06T06:22:17.445Z,2.40
2018-05-06T06:24:45.001Z,2.40
2018-05-06T06:27:13.295Z,2.53
2018-05-06T06:29:40.845Z,2.60
2018-05-06T06:32:08.370Z,2.65
2018-05-06T06:34:36.723Z,2.78
2018-05-06T06:37:04.263Z,2.42
2018-05-06T06:39:31.801Z,2.62
2018-05-06T06:41:59.376Z,2.85
2018-05-06T06:44:26.915Z,2.33
2018-05-06T06:46:54.591Z,2.20
2018-05-06T06:49:22.123Z,2.43
2018-05-06T06:51:50.414Z,2.40
2018-05-06T06:54:17.985Z,2.30
2018-05-06T06:56:45.515Z,2.43
2018-05-06T06:59:13.992Z,2.30
2018-05-06T07:01:41.593Z,2.00
2018-05-06T07:04:09.147Z,2.17
2018-05-06T07:06:36.686Z,2.30
2018-05-06T07:09:04.248Z,4.17
2018-05-06T07:11:31.810Z,8.57
2018-05-06T07:13:59.336Z,2.47
2018-05-06T07:16:26.886Z,2.30
2018-05-06T07:18:54.474Z,2.17
2018-05-06T07:21:26.906Z,2.30
2018-05-06T07:23:54.441Z,2.30
2018-05-06T07:26:21.988Z,2.20
2018-05-06T07:28:49.514Z,2.23
2018-05-06T07:31:17.307Z,2.20
2018-05-06T07:33:45.580Z,2.30
2018-05-06T07:36:13.253Z,2.30
2018-05-06T07:38:41.871Z,1.90
2018-05-06T07:41:09.392Z,2.60
2018-05-06T07:43:36.974Z,2.23
2018-05-06T07:46:04.482Z,2.20
2018-05-06T07:48:32.038Z,2.20
2018-05-06T07:50:59.573Z,7.27
2018-05-06T07:53:27.120Z,4.13
2018-05-06T07:55:54.810Z,2.30
2018-05-06T07:58:22.414Z,2.40
2018-05-06T08:00:49.988Z,2.10
2018-05-06T08:03:18.371Z,2.27
2018-05-06T08:05:46.360Z,2.20
2018-05-06T08:08:14.822Z,2.40
2018-05-06T08:10:42.386Z,2.03
2018-05-06T08:13:10.659Z,2.20
2018-05-06T08:15:38.178Z,2.03
2018-05-06T08:18:06.503Z,2.30
2018-05-06T08:20:34.039Z,2.13
2018-05-06T08:23:01.570Z,2.23
2018-05-06T08:25:29.121Z,3.03
2018-05-06T08:27:56.676Z,3.47
2018-05-06T08:30:24.184Z,2.40
2018-05-06T08:32:53.607Z,2.40
2018-05-06T08:35:21.151Z,2.40
2018-05-06T08:37:48.702Z,2.20
2018-05-06T08:40:16.254Z,2.00
2018-05-06T08:42:43.802Z,1.83
2018-05-06T08:45:12.285Z,2.50
2018-05-06T08:47:40.581Z,2.33
2018-05-06T08:50:08.137Z,2.23
2018-05-06T08:55:15.418Z,2.23
2018-05-06T08:57:43.718Z,2.10
2018-05-06T09:00:11.268Z,1.97
2018-05-06T09:02:39.562Z,2.30
2018-05-06T09:05:07.128Z,2.23
2018-05-06T09:07:34.656Z,1.90
2018-05-06T09:10:02.996Z,2.10
2018-05-06T09:12:30.497Z,2.10
2018-05-06T09:14:59.734Z,2.07
2018-05-06T09:17:28.431Z,2.30
2018-05-06T09:20:02.637Z,2.07
2018-05-06T09:22:30.196Z,2.43
2018-05-06T09:24:57.739Z,2.00
2018-05-06T09:27:25.263Z,2.00
2018-05-06T09:29:53.567Z,2.30
2018-05-06T09:32:21.131Z,2.00
2018-05-06T09:34:49.425Z,2.10
2018-05-06T09:37:16.977Z,1.90
2018-05-06T09:39:44.581Z,2.17
2018-05-06T09:42:12.217Z,2.17
2018-05-06T09:44:39.749Z,1.90
2018-05-06T09:47:07.277Z,2.10
2018-05-06T09:49:37.576Z,2.57
2018-05-06T09:52:05.117Z,2.20
2018-05-06T09:54:32.834Z,2.10
2018-05-06T09:57:01.162Z,2.20
2018-05-06T09:59:28.704Z,1.97
2018-05-06T10:01:56.294Z,1.80
2018-05-06T10:04:25.533Z,1.90
2018-05-06T10:06:53.066Z,2.23
2018-05-06T10:09:21.565Z,2.03
2018-05-06T10:11:49.923Z,1.73
2018-05-06T10:14:17.457Z,2.13
2018-05-06T10:16:44.999Z,1.90
2018-05-06T10:19:12.539Z,2.30
2018-05-06T10:21:40.065Z,2.00
2018-05-06T10:24:07.608Z,1.90
2018-05-06T10:26:35.129Z,1.83
2018-05-06T10:29:02.754Z,2.27
2018-05-06T10:31:30.276Z,1.90
2018-05-06T10:33:57.845Z,2.00
2018-05-06T10:36:25.378Z,2.10
2018-05-06T10:38:52.920Z,1.60
2018-05-06T10:43:54.572Z,2.70
2018-05-06T10:46:22.041Z,2.70
2018-05-06T10:48:50.401Z,2.10
2018-05-06T10:51:17.960Z,2.10
2018-05-06T10:53:45.486Z,2.10
2018-05-06T10:56:13.130Z,2.00
2018-05-06T10:58:40.647Z,2.03
2018-05-06T11:01:09.016Z,4.53
2018-05-06T11:03:36.544Z,2.07
2018-05-06T11:06:04.182Z,1.97
2018-05-06T11:08:31.693Z,1.67
2018-05-06T11:10:59.238Z,2.00
2018-05-06T11:13:30.131Z,1.50
2018-05-06T11:15:57.668Z,1.87
2018-05-06T11:18:27.160Z,1.90
2018-05-06T11:20:54.691Z,1.63
2018-05-06T11:23:22.235Z,1.60
2018-05-06T11:25:49.772Z,1.57
2018-05-06T11:28:17.355Z,1.77
2018-05-06T11:30:45.116Z,1.97
2018-05-06T11:33:13.410Z,1.50
2018-05-06T11:35:41.054Z,1.70
2018-05-06T11:38:08.683Z,2.00
2018-05-06T11:40:37.027Z,1.70
2018-05-06T11:43:04.603Z,1.70
2018-05-06T11:45:32.164Z,1.60
2018-05-06T11:48:00.263Z,1.80
2018-05-06T11:50:28.580Z,1.43
2018-05-06T11:52:56.123Z,1.93
2018-05-06T11:55:23.700Z,1.80
2018-05-06T11:57:51.280Z,2.20
2018-05-06T12:00:18.856Z,1.77
2018-05-06T12:02:46.376Z,1.70
2018-05-06T12:05:13.946Z,1.93
2018-05-06T12:07:41.509Z,1.47
2018-05-06T12:10:09.064Z,1.30
2018-05-06T12:12:36.923Z,1.80
2018-05-06T12:15:05.822Z,2.17
2018-05-06T12:17:33.525Z,4.50
2018-05-06T12:20:02.079Z,1.40
2018-05-06T12:22:29.867Z,1.57
2018-05-06T12:24:58.421Z,1.60
2018-05-06T12:27:26.230Z,1.60
2018-05-06T12:29:54.130Z,1.53
2018-05-06T12:32:21.908Z,1.80
2018-05-06T12:34:49.865Z,1.87
2018-05-06T12:37:17.939Z,1.97
2018-05-06T12:39:45.841Z,1.60
2018-05-06T12:42:13.545Z,1.62
2018-05-06T12:44:41.445Z,1.70
2018-05-06T12:47:09.380Z,1.50
2018-05-06T12:49:37.218Z,1.70
2018-05-06T12:52:05.972Z,1.48
2018-05-06T12:54:33.825Z,1.70
2018-05-06T12:57:01.711Z,1.17
2018-05-06T12:59:29.538Z,1.45
2018-05-06T13:01:57.398Z,1.60
2018-05-06T13:04:25.603Z,1.80
2018-05-06T13:06:53.442Z,1.48
2018-05-06T13:09:21.044Z,1.35
2018-05-06T13:11:48.629Z,1.40
2018-05-06T13:14:18.111Z,1.20
2018-05-06T13:16:45.702Z,1.50
2018-05-06T13:19:13.288Z,1.40
2018-05-06T13:21:40.977Z,1.37
2018-05-06T13:24:08.617Z,1.30
2018-05-06T13:26:40.970Z,1.30
2018-05-06T13:29:08.576Z,1.40
2018-05-06T13:31:36.159Z,1.47
2018-05-06T13:34:03.692Z,1.40
2018-05-06T13:36:32.807Z,1.48
2018-05-06T13:39:00.372Z,1.70
2018-05-06T13:41:28.111Z,1.75
2018-05-06T13:43:55.657Z,1.50
2018-05-06T13:46:23.233Z,2.10
2018-05-06T13:48:50.799Z,1.77
2018-05-06T13:51:18.371Z,2.00
2018-05-06T13:53:45.911Z,2.40
2018-05-06T13:56:13.607Z,1.65
2018-05-06T13:58:41.171Z,1.70
2018-05-06T14:01:09.862Z,2.40
2018-05-06T14:03:37.497Z,2.50
2018-05-06T14:06:05.121Z,2.10
2018-05-06T14:08:33.427Z,1.67
2018-05-06T14:11:00.980Z,2.08
2018-05-06T14:13:28.552Z,1.70
2018-05-06T14:15:56.128Z,1.52
2018-05-06T14:18:27.039Z,1.25
2018-05-06T14:20:54.640Z,3.23
2018-05-06T14:23:22.221Z,1.90
2018-05-06T14:25:50.641Z,1.73
2018-05-06T14:28:18.303Z,2.30
2018-05-06T14:30:45.853Z,2.55
2018-05-06T14:33:13.435Z,1.55
2018-05-06T14:35:40.983Z,1.60
2018-05-06T14:38:08.560Z,2.22
2018-05-06T14:40:36.107Z,2.35
2018-05-06T14:43:03.668Z,3.10
2018-05-06T14:45:31.246Z,1.90
2018-05-06T14:48:10.729Z,1.70
2018-05-06T14:50:39.142Z,2.30
2018-05-06T14:53:06.700Z,1.70
2018-05-06T14:55:34.362Z,1.80
2018-05-06T14:58:01.904Z,1.65
2018-05-06T15:00:30.231Z,1.70
2018-05-06T15:02:57.798Z,1.60
2018-05-06T15:05:25.729Z,1.98
2018-05-06T15:07:53.293Z,1.60
2018-05-06T15:10:20.879Z,1.80
2018-05-06T15:12:48.411Z,1.52
2018-05-06T15:15:16.016Z,1.35
2018-05-06T15:17:43.556Z,1.50
2018-05-06T15:20:11.131Z,1.60
2018-05-06T15:22:38.702Z,1.70
2018-05-06T15:25:06.535Z,1.83
2018-05-06T15:27:34.084Z,1.20
2018-05-06T15:30:01.662Z,1.30
2018-05-06T15:32:29.210Z,1.40
2018-05-06T15:34:56.814Z,1.70
2018-05-06T15:37:25.032Z,1.50
2018-05-06T15:39:52.639Z,1.55
2018-05-06T15:42:20.205Z,1.23
2018-05-06T15:44:47.812Z,1.50
2018-05-06T15:47:15.382Z,1.27
2018-05-06T15:49:42.955Z,1.80
2018-05-06T15:52:10.522Z,1.50
2018-05-06T15:54:38.358Z,1.40
2018-05-06T15:57:05.935Z,1.30
2018-05-06T15:59:33.516Z,1.98
2018-05-06T16:05:01.696Z,1.55
2018-05-06T16:07:29.268Z,1.60
2018-05-06T16:09:56.831Z,1.50
2018-05-06T16:12:24.409Z,1.70
2018-05-06T16:14:52.096Z,1.40
2018-05-06T16:17:20.434Z,1.30
2018-05-06T16:19:47.976Z,1.20
2018-05-06T16:22:15.704Z,1.40
2018-05-06T16:24:43.312Z,2.62
2018-05-06T16:27:10.952Z,1.35
2018-05-06T16:29:38.590Z,1.50
2018-05-06T16:32:06.108Z,1.20
2018-05-06T16:34:33.693Z,1.42
2018-05-06T16:37:02.048Z,1.42
2018-05-06T16:39:29.667Z,1.17
2018-05-06T16:41:57.248Z,1.40
2018-05-06T16:44:24.833Z,1.50
2018-05-06T16:46:52.439Z,1.37
2018-05-06T16:49:20.238Z,1.48
2018-05-06T16:51:47.788Z,1.30
2018-05-06T16:54:15.351Z,1.70
2018-05-06T16:56:42.932Z,1.40
2018-05-06T16:59:10.484Z,1.33
2018-05-06T17:01:38.091Z,1.58
2018-05-06T17:04:06.428Z,1.70
2018-05-06T17:06:34.028Z,1.90
2018-05-06T17:09:02.359Z,1.70
2018-05-06T17:11:29.991Z,1.52
2018-05-06T17:13:57.617Z,1.60
2018-05-06T17:16:25.171Z,2.03
2018-05-06T17:18:53.511Z,2.47
2018-05-06T17:21:21.071Z,3.20
2018-05-06T17:23:48.649Z,1.90
2018-05-06T17:26:16.200Z,1.60
2018-05-06T17:28:43.833Z,1.50
2018-05-06T17:31:11.396Z,1.70
2018-05-06T17:33:38.959Z,2.10
2018-05-06T17:36:06.541Z,1.60
2018-05-06T17:38:34.111Z,2.17
2018-05-06T17:41:01.675Z,1.63
2018-05-06T17:43:29.240Z,1.50
2018-05-06T17:45:56.804Z,1.80
2018-05-06T17:48:24.380Z,1.70
2018-05-06T17:50:52.741Z,1.70
2018-05-06T17:53:20.331Z,1.40
2018-05-06T17:55:48.100Z,1.77
2018-05-06T17:58:15.640Z,1.40
2018-05-06T18:00:43.216Z,1.90
2018-05-06T18:03:11.534Z,1.40
2018-05-06T18:05:39.120Z,1.57
2018-05-06T18:08:06.676Z,1.50
2018-05-06T18:10:34.256Z,1.40
2018-05-06T18:13:02.615Z,1.53
2018-05-06T18:15:30.215Z,1.90
2018-05-06T18:17:57.822Z,1.50
2018-05-06T18:20:25.355Z,1.47
2018-05-06T18:22:52.955Z,2.00
2018-05-06T18:25:20.610Z,1.90
2018-05-06T18:27:48.164Z,1.60
2018-05-06T18:30:15.711Z,1.60
2018-05-06T18:32:43.283Z,1.73
2018-05-06T18:35:10.840Z,1.70
2018-05-06T18:37:38.427Z,1.80
2018-05-06T18:40:06.015Z,1.83
2018-05-06T18:42:34.413Z,1.87
2018-05-06T18:45:01.976Z,1.50
2018-05-06T18:47:29.559Z,1.63
2018-05-06T18:49:57.127Z,1.83
2018-05-06T18:52:24.892Z,2.00
2018-05-06T18:54:52.560Z,2.00
2018-05-06T18:57:20.302Z,2.30
2018-05-06T18:59:47.816Z,1.80
2018-05-06T19:02:16.140Z,2.50
2018-05-06T19:04:43.736Z,1.73
2018-05-06T19:07:11.397Z,1.90
2018-05-06T19:09:38.980Z,2.07
2018-05-06T19:12:07.327Z,1.73
2018-05-06T19:14:34.892Z,1.70
2018-05-06T19:17:02.521Z,1.63
2018-05-06T19:19:30.836Z,1.60
2018-05-06T19:21:59.237Z,1.60
2018-05-06T19:24:27.872Z,1.63
2018-05-06T19:26:55.441Z,1.80
2018-05-06T19:29:23.026Z,2.10
2018-05-06T19:31:50.602Z,1.80
2018-05-06T19:34:18.183Z,1.70
2018-05-06T19:36:45.751Z,2.07
2018-05-06T19:39:13.316Z,1.80
2018-05-06T19:41:40.911Z,2.20
2018-05-06T19:44:08.493Z,1.83
2018-05-06T19:46:36.047Z,1.77
2018-05-06T19:49:03.696Z,1.87
2018-05-06T19:51:32.094Z,1.83
2018-05-06T19:53:59.647Z,2.03
2018-05-06T19:56:28.732Z,3.43
2018-05-06T19:58:56.296Z,5.47
2018-05-06T20:01:23.887Z,2.57
2018-05-06T20:03:52.224Z,2.10
2018-05-06T20:06:20.061Z,1.97
2018-05-06T20:08:47.672Z,2.30
2018-05-06T20:11:15.997Z,1.77
2018-05-06T20:13:43.563Z,1.90
2018-05-06T20:16:11.162Z,1.87
2018-05-06T20:18:38.745Z,1.90
2018-05-06T20:21:07.256Z,1.90
2018-05-06T20:23:34.864Z,2.13
2018-05-06T20:26:02.436Z,1.50
2018-05-06T20:28:30.016Z,2.20
2018-05-06T20:30:58.487Z,2.00
2018-05-06T20:33:26.136Z,2.40
2018-05-06T20:35:53.728Z,2.67
2018-05-06T20:38:21.349Z,2.60
2018-05-06T20:40:48.856Z,2.00
2018-05-06T20:43:16.433Z,2.00
2018-05-06T20:45:44.017Z,2.00
2018-05-06T20:48:11.599Z,2.00
2018-05-06T20:50:40.653Z,1.70
2018-05-06T20:53:08.223Z,1.80
2018-05-06T20:55:35.836Z,2.10
2018-05-06T20:58:04.171Z,2.00
2018-05-06T21:00:31.742Z,2.07
2018-05-06T21:02:59.322Z,2.20
2018-05-06T21:05:27.682Z,2.27
2018-05-06T21:07:55.255Z,2.30
2018-05-06T21:10:22.902Z,2.23
2018-05-06T21:12:51.170Z,2.20
2018-05-06T21:15:18.724Z,2.33
2018-05-06T21:17:46.310Z,2.33
2018-05-06T21:20:13.879Z,2.77
2018-05-06T21:22:42.263Z,2.87
2018-05-06T21:25:09.858Z,3.00
2018-05-06T21:27:37.554Z,2.43
2018-05-06T21:30:05.110Z,2.50
2018-05-06T21:32:32.780Z,2.70
2018-05-06T21:35:01.871Z,2.50
2018-05-06T21:37:29.464Z,2.50
2018-05-06T21:39:57.039Z,2.33
2018-05-06T21:42:25.355Z,2.67
2018-05-06T21:44:52.958Z,3.03
2018-05-06T21:47:20.517Z,2.93
2018-05-06T21:49:48.101Z,2.43
2018-05-06T21:52:16.514Z,2.63
2018-05-06T21:54:44.076Z,2.77
2018-05-06T21:57:11.705Z,2.50
2018-05-06T21:59:39.329Z,2.50
2018-05-06T22:02:06.899Z,2.57
2018-05-06T22:04:34.623Z,2.60
2018-05-06T22:07:02.187Z,2.50
2018-05-06T22:09:29.760Z,2.77
2018-05-06T22:11:57.344Z,2.60
2018-05-06T22:14:24.967Z,2.70
2018-05-06T22:16:52.579Z,2.67
2018-05-06T22:19:20.929Z,2.57
2018-05-06T22:21:48.540Z,2.97
2018-05-06T22:24:16.136Z,2.83
2018-05-06T22:26:43.705Z,2.80
2018-05-06T22:29:11.331Z,2.53
2018-05-06T22:31:38.892Z,2.80
2018-05-06T22:34:06.527Z,2.50
2018-05-06T22:36:34.116Z,2.67
2018-05-06T22:39:01.691Z,2.70
2018-05-06T22:41:29.342Z,2.37
2018-05-06T22:43:57.559Z,2.40
2018-05-06T22:46:25.108Z,2.60
2018-05-06T22:48:52.835Z,2.50
2018-05-06T22:51:20.387Z,2.53
2018-05-06T22:53:47.977Z,2.67
2018-05-06T22:56:15.544Z,2.40
2018-05-06T22:58:43.154Z,2.37
2018-05-06T23:01:11.497Z,2.60
2018-05-06T23:03:39.055Z,2.73
2018-05-06T23:06:06.603Z,2.60
2018-05-06T23:08:34.164Z,2.80
2018-05-06T23:11:01.720Z,2.50
2018-05-06T23:13:29.345Z,2.70
2018-05-06T23:15:56.927Z,2.20
2018-05-06T23:18:24.478Z,2.50
2018-05-06T23:20:52.084Z,2.37
2018-05-06T23:23:19.590Z,2.73
2018-05-06T23:25:47.179Z,2.80
2018-05-06T23:28:14.755Z,2.60
2018-05-06T23:30:42.373Z,2.73
2018-05-06T23:33:09.940Z,3.00
2018-05-06T23:35:37.604Z,2.80
2018-05-06T23:38:05.584Z,2.40
2018-05-06T23:40:33.160Z,2.80
2018-05-06T23:43:00.715Z,2.90
2018-05-06T23:45:28.264Z,2.50
2018-05-06T23:47:55.945Z,2.70
2018-05-06T23:50:23.590Z,2.80
2018-05-06T23:52:51.171Z,2.53
2018-05-06T23:55:18.855Z,2.70
2018-05-06T23:57:46.489Z,2.63
